Time;durP1;ratioP1;P1;durP2;ratioP2;P2;SDS_P1;SDS_P2;PMS_P1;PMS_P2;Temp;Humidity;BMP_temperature;BMP_pressure;BME280_temperature;BME280_humidity;BME280_pressure;Samples;Min_cycle;Max_cycle;Signal;HPM_P1;HPM_P2
2022/02/24 00:00:56;;;;;;;20.55;13.50;;;;;;;1.53;100.00;99556.15;1688978;83;20967;-70
2022/02/24 00:03:23;;;;;;;14.17;12.03;;;;;;;1.54;100.00;99563.57;1690671;83;21062;-71
2022/02/24 00:05:51;;;;;;;21.42;12.93;;;;;;;1.52;100.00;99557.17;1690268;83;21088;-70
2022/02/24 00:08:20;;;;;;;56.35;29.60;;;;;;;1.53;100.00;99558.80;1694645;82;21100;-69
2022/02/24 00:10:48;;;;;;;23.57;14.38;;;;;;;1.54;100.00;99567.54;1688726;83;21616;-70
2022/02/24 00:13:16;;;;;;;15.95;11.97;;;;;;;1.52;100.00;99571.72;1687332;82;21007;-69
2022/02/24 00:15:43;;;;;;;28.40;15.53;;;;;;;1.52;100.00;99573.05;1690962;82;21013;-67
2022/02/24 00:18:11;;;;;;;243.50;96.35;;;;;;;1.52;100.00;99570.40;1686461;85;21087;-69
2022/02/24 00:20:37;;;;;;;134.65;57.13;;;;;;;1.54;100.00;99581.58;1693978;84;21954;-70
2022/02/24 00:23:05;;;;;;;114.45;48.58;;;;;;;1.54;100.00;99578.12;1692538;84;21487;-70
2022/02/24 00:25:32;;;;;;;186.57;79.58;;;;;;;1.55;100.00;99582.42;1694028;84;20981;-69
2022/02/24 00:27:59;;;;;;;96.12;42.25;;;;;;;1.56;100.00;99588.01;1692040;84;21044;-69
2022/02/24 00:30:27;;;;;;;89.32;38.65;;;;;;;1.56;100.00;99587.50;1682708;84;21504;-69
2022/02/24 00:32:53;;;;;;;56.02;29.18;;;;;;;1.56;100.00;99581.39;1679050;84;21206;-70
2022/02/24 00:35:21;;;;;;;108.80;46.77;;;;;;;1.56;100.00;99584.04;1686018;84;20947;-70
2022/02/24 00:37:48;;;;;;;55.67;28.02;;;;;;;1.56;100.00;99586.17;1692388;84;20974;-69
2022/02/24 00:40:15;;;;;;;73.65;34.20;;;;;;;1.58;100.00;99589.95;1693830;84;20923;-69
2022/02/24 00:42:41;;;;;;;62.00;28.02;;;;;;;1.58;100.00;99593.42;1691103;84;21113;-70
2022/02/24 00:45:09;;;;;;;72.72;33.95;;;;;;;1.61;100.00;99601.47;1681532;84;21656;-71
2022/02/24 00:47:37;;;;;;;40.00;18.27;;;;;;;1.60;100.00;99603.30;1682055;84;20930;-71
2022/02/24 00:50:05;;;;;;;22.32;14.75;;;;;;;1.64;100.00;99607.20;1691505;84;20984;-70
2022/02/24 00:52:32;;;;;;;17.20;12.75;;;;;;;1.62;100.00;99605.77;1682407;84;21497;-71
2022/02/24 00:55:02;;;;;;;21.07;14.10;;;;;;;1.62;100.00;99609.73;1677395;84;21053;-70
2022/02/24 00:57:29;;;;;;;24.37;16.75;;;;;;;1.60;100.00;99609.92;1692332;84;21230;-71
2022/02/24 00:59:55;;;;;;;54.05;30.32;;;;;;;1.62;100.00;99610.55;1673598;84;20958;-70
2022/02/24 01:02:23;;;;;;;73.10;37.70;;;;;;;1.60;100.00;99615.72;1692466;84;21536;-71
2022/02/24 01:04:49;;;;;;;93.72;74.60;;;;;;;1.58;100.00;99618.55;1692457;84;21579;-69
2022/02/24 01:07:16;;;;;;;31.02;23.92;;;;;;;1.57;100.00;99615.61;1689947;84;20853;-71
2022/02/24 01:09:44;;;;;;;202.70;137.20;;;;;;;1.58;100.00;99613.77;1702469;84;21152;-69
2022/02/24 01:12:10;;;;;;;66.35;43.75;;;;;;;1.57;100.00;99619.58;1667359;85;21053;-70
2022/02/24 01:14:37;;;;;;;143.43;61.05;;;;;;;1.56;100.00;99623.21;1663650;86;20933;-69
2022/02/24 01:17:05;;;;;;;130.85;53.08;;;;;;;1.56;100.00;99626.38;1679899;85;20993;-70
2022/02/24 01:19:34;;;;;;;191.57;73.02;;;;;;;1.53;100.00;99622.28;1682418;85;20988;-72
2022/02/24 01:22:01;;;;;;;127.72;50.48;;;;;;;1.52;100.00;99620.66;1684056;85;21147;-69
2022/02/24 01:24:28;;;;;;;49.85;21.70;;;;;;;1.53;100.00;99630.73;1683908;85;20855;-68
2022/02/24 01:26:54;;;;;;;27.85;14.80;;;;;;;1.48;100.00;99631.30;1683947;85;21083;-67
2022/02/24 01:29:23;;;;;;;55.30;25.77;;;;;;;1.48;100.00;99634.77;1683836;85;21060;-65
2022/02/24 01:31:51;;;;;;;35.35;17.70;;;;;;;1.45;100.00;99638.31;1684435;85;21555;-69
2022/02/24 01:34:19;;;;;;;14.28;10.13;;;;;;;1.42;100.00;99632.91;1680884;85;21244;-69
2022/02/24 01:36:47;;;;;;;167.18;64.97;;;;;;;1.39;100.00;99637.23;1684606;85;20969;-66
2022/02/24 01:39:14;;;;;;;19.40;11.90;;;;;;;1.36;100.00;99634.98;1684742;85;20934;-69
2022/02/24 01:41:40;;;;;;;14.53;11.20;;;;;;;1.34;100.00;99642.79;1686110;85;20944;-69
2022/02/24 01:44:13;;;;;;;170.45;66.95;;;;;;;1.31;100.00;99644.50;1685920;85;20940;-68
2022/02/24 01:46:42;;;;;;;37.05;19.45;;;;;;;1.30;100.00;99645.02;1680708;85;21498;-69
2022/02/24 01:49:09;;;;;;;22.22;15.32;;;;;;;1.32;100.00;99653.55;1684731;85;21571;-69
2022/02/24 01:51:37;;;;;;;33.35;17.90;;;;;;;1.29;100.00;99649.46;1686080;85;20867;-69
2022/02/24 01:54:05;;;;;;;20.48;12.98;;;;;;;1.30;100.00;99647.66;1683999;85;21000;-69
2022/02/24 01:56:33;;;;;;;16.97;12.73;;;;;;;1.29;100.00;99656.07;1682461;85;21550;-68
2022/02/24 01:59:00;;;;;;;24.72;15.10;;;;;;;1.29;100.00;99657.91;1686308;85;21752;-69
2022/02/24 02:01:27;;;;;;;25.40;15.93;;;;;;;1.29;100.00;99659.23;1685902;85;20882;-70
2022/02/24 02:03:54;;;;;;;17.98;11.95;;;;;;;1.28;100.00;99662.89;1686323;85;20910;-69
2022/02/24 02:06:23;;;;;;;27.10;14.15;;;;;;;1.27;100.00;99663.41;1685563;85;21115;-73
2022/02/24 02:08:49;;;;;;;15.28;12.73;;;;;;;1.30;100.00;99662.20;1681152;85;21009;-70
2022/02/24 02:11:16;;;;;;;15.30;12.33;;;;;;;1.31;100.00;99662.50;1681615;85;21116;-69
2022/02/24 02:13:44;;;;;;;18.57;12.13;;;;;;;1.31;100.00;99667.79;1680968;85;20981;-68
2022/02/24 02:16:12;;;;;;;17.30;11.40;;;;;;;1.32;100.00;99669.92;1687299;84;21001;-68
2022/02/24 02:18:41;;;;;;;21.73;11.60;;;;;;;1.32;100.00;99673.89;1666682;83;21534;-68
2022/02/24 02:21:08;;;;;;;114.42;46.50;;;;;;;1.32;100.00;99674.70;1659887;85;21126;-71
2022/02/24 02:23:36;;;;;;;;;;;;;;;1.32;100.00;99669.41;1658522;85;20889;-70
2022/02/24 02:26:03;;;;;;;49.77;26.12;;;;;;;1.32;100.00;99678.67;1668082;85;20150;-69
2022/02/24 02:28:31;;;;;;;80.70;40.33;;;;;;;1.32;100.00;99681.83;1667346;85;20948;-69
2022/02/24 02:30:57;;;;;;;68.37;33.80;;;;;;;1.32;100.00;99681.83;1663456;83;21084;-70
2022/02/24 02:33:24;;;;;;;145.68;70.87;;;;;;;1.31;100.00;99684.98;1707070;83;21011;-68
2022/02/24 02:35:50;;;;;;;191.45;83.75;;;;;;;1.31;100.00;99698.20;1698211;82;21139;-70
2022/02/24 02:38:17;;;;;;;24.82;15.38;;;;;;;1.32;100.00;99694.54;1703991;82;20955;-68
2022/02/24 02:40:44;;;;;;;56.42;34.03;;;;;;;1.32;100.00;99695.86;1700935;83;20948;-68
2022/02/24 02:43:11;;;;;;;21.68;13.85;;;;;;;1.33;100.00;99696.70;1707315;82;20960;-70
2022/02/24 02:45:38;;;;;;;20.65;15.10;;;;;;;1.34;100.00;99699.14;1706982;83;22163;-70
2022/02/24 02:48:06;;;;;;;107.78;54.45;;;;;;;1.37;100.00;99704.55;1702506;83;21566;-70
2022/02/24 02:50:33;;;;;;;69.53;35.27;;;;;;;1.38;100.00;99707.02;1695065;82;21553;-71
2022/02/24 02:53:04;;;;;;;59.13;33.03;;;;;;;1.39;100.00;99708.64;1701039;82;21331;-70
2022/02/24 02:55:30;;;;;;;48.92;26.12;;;;;;;1.39;100.00;99713.94;1698921;83;20963;-69
2022/02/24 02:57:57;;;;;;;102.30;49.27;;;;;;;1.41;100.00;99714.56;1695618;82;20953;-71
2022/02/24 03:00:24;;;;;;;63.08;29.87;;;;;;;1.42;100.00;99712.73;1710253;83;21208;-70
2022/02/24 03:02:51;;;;;;;85.75;38.38;;;;;;;1.44;100.00;99718.66;1686842;83;20992;-69
2022/02/24 03:05:17;;;;;;;152.43;62.73;;;;;;;1.44;100.00;99723.44;1689489;83;21007;-69
2022/02/24 03:07:44;;;;;;;49.77;25.70;;;;;;;1.45;100.00;99721.13;1656231;85;21008;-70
2022/02/24 03:10:10;;;;;;;50.60;27.15;;;;;;;1.44;100.00;99714.69;1686370;84;20991;-69
2022/02/24 03:12:38;;;;;;;70.47;31.48;;;;;;;1.42;100.00;99721.52;1662269;84;21108;-70
2022/02/24 03:15:13;;;;;;;156.15;61.42;;;;;;;1.40;100.00;99722.20;1635265;86;21060;-70
2022/02/24 03:17:42;;;;;;;81.00;35.63;;;;;;;1.41;100.00;99725.14;1711607;82;21069;-69
2022/02/24 03:20:11;;;;;;;67.60;34.10;;;;;;;1.41;100.00;99721.69;1699042;82;21114;-70
2022/02/24 03:22:39;;;;;;;59.23;32.13;;;;;;;1.38;100.00;99728.17;1656130;86;20932;-70
2022/02/24 03:25:06;;;;;;;22.37;13.83;;;;;;;1.37;100.00;99726.55;1687085;83;21161;-70
2022/02/24 03:27:34;;;;;;;42.93;22.35;;;;;;;1.36;100.00;99731.51;1690457;83;28203;-70
2022/02/24 03:30:05;;;;;;;48.20;26.12;;;;;;;1.35;100.00;99730.36;1686962;85;20971;-69
2022/02/24 03:32:32;;;;;;;22.80;13.00;;;;;;;1.34;100.00;99740.13;1690904;83;21007;-69
2022/02/24 03:34:58;;;;;;;14.40;9.63;;;;;;;1.32;100.00;99743.98;1688894;83;21004;-70
2022/02/24 03:37:25;;;;;;;17.50;12.18;;;;;;;1.28;100.00;99745.68;1669252;83;21125;-69
2022/02/24 03:39:52;;;;;;;20.15;11.22;;;;;;;1.25;100.00;99746.06;1688746;82;20912;-68
2022/02/24 03:42:19;;;;;;;18.10;11.90;;;;;;;1.22;100.00;99751.70;1692254;83;21651;-70
2022/02/24 03:44:46;;;;;;;37.78;21.45;;;;;;;1.14;100.00;99747.88;1715708;83;21466;-70
2022/02/24 03:47:12;;;;;;;35.33;20.65;;;;;;;1.06;100.00;99748.81;1713638;83;21439;-69
2022/02/24 03:49:40;;;;;;;50.33;26.35;;;;;;;1.03;100.00;99751.03;1715642;83;22059;-69
2022/02/24 03:52:08;;;;;;;54.38;28.92;;;;;;;0.99;100.00;99751.07;1713602;83;21541;-69
2022/02/24 03:54:35;;;;;;;41.73;23.67;;;;;;;0.97;100.00;99752.56;1711619;83;20951;-70
2022/02/24 03:57:02;;;;;;;37.40;21.23;;;;;;;0.97;100.00;99757.86;1692061;83;21532;-72
2022/02/24 03:59:29;;;;;;;33.10;20.10;;;;;;;0.98;100.00;99757.34;1691447;83;21059;-68
2022/02/24 04:01:57;;;;;;;43.83;25.35;;;;;;;0.99;100.00;99757.68;1656070;86;21815;-69
2022/02/24 04:04:25;;;;;;;22.60;14.60;;;;;;;1.00;100.00;99762.77;1688800;83;20963;-70
2022/02/24 04:06:52;;;;;;;26.42;15.78;;;;;;;1.00;100.00;99760.62;1709433;83;21458;-69
2022/02/24 04:09:18;;;;;;;31.50;19.12;;;;;;;1.01;100.00;99766.25;1714332;83;21027;-69
2022/02/24 04:11:45;;;;;;;25.48;17.70;;;;;;;0.99;100.00;99768.25;1711561;82;21525;-69
2022/02/24 04:14:12;;;;;;;13.83;10.78;;;;;;;0.96;100.00;99773.41;1705291;83;21859;-69
2022/02/24 04:16:39;;;;;;;43.15;26.75;;;;;;;0.96;100.00;99780.02;1699641;83;21529;-69
2022/02/24 04:19:07;;;;;;;90.92;81.72;;;;;;;0.97;100.00;99781.64;1683978;83;21600;-69
2022/02/24 04:21:35;;;;;;;77.87;67.30;;;;;;;1.03;100.00;99785.39;1682162;85;20976;-69
2022/02/24 04:24:05;;;;;;;278.95;187.65;;;;;;;1.05;100.00;99784.67;1684278;84;21567;-69
2022/02/24 04:26:33;;;;;;;98.47;79.17;;;;;;;1.02;100.00;99792.98;1681419;84;21158;-69
2022/02/24 04:29:01;;;;;;;549.45;278.12;;;;;;;1.00;100.00;99795.80;1690974;84;21005;-69
2022/02/24 04:31:27;;;;;;;382.17;190.40;;;;;;;0.96;100.00;99801.16;1691784;84;20938;-69
2022/02/24 04:33:55;;;;;;;162.72;81.53;;;;;;;0.89;100.00;99806.87;1691855;84;20995;-70
2022/02/24 04:36:23;;;;;;;89.72;45.43;;;;;;;0.86;100.00;99812.53;1682484;84;21623;-69
2022/02/24 04:38:51;;;;;;;84.20;45.00;;;;;;;0.86;100.00;99816.50;1681471;84;22326;-69
2022/02/24 04:41:18;;;;;;;18.27;13.50;;;;;;;0.80;100.00;99812.74;1681844;83;20985;-69
2022/02/24 04:43:45;;;;;;;56.75;27.90;;;;;;;0.75;100.00;99824.88;1679105;84;21127;-69
2022/02/24 04:46:14;;;;;;;114.35;47.75;;;;;;;0.70;100.00;99829.38;1682973;83;21029;-70
2022/02/24 04:48:41;;;;;;;70.67;31.37;;;;;;;0.70;100.00;99830.70;1688922;83;21065;-70
2022/02/24 04:51:08;;;;;;;205.00;73.17;;;;;;;0.71;100.00;99834.16;1699186;82;21164;-70
2022/02/24 04:53:35;;;;;;;324.52;113.15;;;;;;;0.74;100.00;99842.55;1723168;83;21480;-70
2022/02/24 04:56:02;;;;;;;159.95;57.83;;;;;;;0.73;100.00;99842.73;1711786;83;21091;-70
2022/02/24 04:58:28;;;;;;;24.23;12.60;;;;;;;0.72;100.00;99852.98;1686314;85;21018;-70
2022/02/24 05:00:55;;;;;;;38.80;16.80;;;;;;;0.73;100.00;99858.58;1689368;83;20943;-70
2022/02/24 05:03:22;;;;;;;19.07;12.00;;;;;;;0.78;100.00;99868.09;1718454;83;21144;-69
2022/02/24 05:05:50;;;;;;;70.20;29.48;;;;;;;0.81;100.00;99867.25;1720688;83;21440;-70
2022/02/24 05:08:18;;;;;;;108.45;38.25;;;;;;;0.85;100.00;99872.47;1723163;83;20998;-69
2022/02/24 05:10:44;;;;;;;56.65;22.62;;;;;;;0.92;100.00;99872.56;1682455;83;21085;-70
2022/02/24 05:13:12;;;;;;;11.03;8.90;;;;;;;0.98;100.00;99877.14;1710475;83;21493;-69
2022/02/24 05:15:38;;;;;;;57.85;23.62;;;;;;;1.03;100.00;99881.37;1702998;83;21173;-70
2022/02/24 05:18:06;;;;;;;23.15;12.73;;;;;;;1.07;100.00;99887.09;1704172;82;21580;-71
2022/02/24 05:20:36;;;;;;;34.88;16.52;;;;;;;1.07;100.00;99895.03;1716311;82;21060;-70
2022/02/24 05:23:10;;;;;;;14.30;10.38;;;;;;;1.08;100.00;99891.40;1735654;82;20997;-70
2022/02/24 05:25:37;;;;;;;49.75;21.12;;;;;;;1.09;100.00;99889.56;1723153;82;21060;-71
2022/02/24 05:28:12;;;;;;;35.17;16.87;;;;;;;1.07;100.00;99891.88;1704027;82;21173;-69
2022/02/24 05:30:40;;;;;;;37.15;16.25;;;;;;;1.08;100.00;99899.33;1705168;82;21027;-69
2022/02/24 05:33:09;;;;;;;15.75;9.60;;;;;;;1.07;100.00;99896.34;1705809;82;21083;-71
2022/02/24 05:35:34;;;;;;;15.03;9.45;;;;;;;1.07;100.00;99909.05;1707813;82;26626;-70
2022/02/24 05:38:01;;;;;;;11.50;9.08;;;;;;;1.09;100.00;99908.07;1705689;82;21110;-67
2022/02/24 05:40:30;;;;;;;20.70;13.05;;;;;;;1.09;100.00;99907.56;1716737;82;21126;-70
2022/02/24 05:42:58;;;;;;;74.75;32.38;;;;;;;1.10;100.00;99906.55;1692913;83;21104;-66
2022/02/24 05:45:25;;;;;;;20.80;11.95;;;;;;;1.11;100.00;99908.20;1699617;83;21066;-67
2022/02/24 05:47:52;;;;;;;20.05;12.15;;;;;;;1.11;100.00;99908.20;1673561;85;21048;-68
2022/02/24 05:50:18;;;;;;;19.17;11.55;;;;;;;1.16;100.00;99915.59;1686660;84;21035;-68
2022/02/24 05:52:45;;;;;;;51.25;25.08;;;;;;;1.18;100.00;99911.76;1684235;84;21173;-67
2022/02/24 05:55:12;;;;;;;133.72;51.50;;;;;;;1.20;100.00;99922.13;1690221;84;21012;-68
2022/02/24 05:57:42;;;;;;;20.12;10.90;;;;;;;1.23;100.00;99921.28;1690285;83;21026;-69
2022/02/24 06:00:10;;;;;;;45.83;21.25;;;;;;;1.25;100.00;99920.59;1687285;83;21046;-70
2022/02/24 06:02:41;;;;;;;234.95;88.40;;;;;;;1.29;100.00;99928.47;1678621;83;21106;-69
2022/02/24 06:05:12;;;;;;;146.93;51.98;;;;;;;1.33;100.00;99930.77;1680265;84;21628;-68
2022/02/24 06:07:42;;;;;;;23.70;11.45;;;;;;;1.36;100.00;99931.70;1681965;84;21067;-68
2022/02/24 06:10:11;;;;;;;19.07;11.50;;;;;;;1.40;100.00;99940.92;1683972;83;21058;-70
2022/02/24 06:12:38;;;;;;;18.47;11.27;;;;;;;1.43;100.00;99944.01;1674199;84;21085;-72
2022/02/24 06:15:08;;;;;;;43.98;19.50;;;;;;;1.47;100.00;99942.64;1685887;84;21147;-69
2022/02/24 06:17:38;;;;;;;71.33;28.62;;;;;;;1.52;100.00;99965.06;1679719;83;21097;-70
2022/02/24 06:20:07;;;;;;;62.20;27.17;;;;;;;1.55;100.00;99964.71;1680055;83;21130;-70
2022/02/24 06:22:41;;;;;;;70.80;26.93;;;;;;;1.62;100.00;99962.97;1734150;80;21081;-73
2022/02/24 06:25:10;;;;;;;324.35;105.85;;;;;;;1.68;100.00;99974.94;1733661;81;21150;-70
2022/02/24 06:27:37;;;;;;;106.30;38.35;;;;;;;1.72;100.00;99984.66;1735942;80;21633;-68
2022/02/24 06:30:06;;;;;;;43.98;18.42;;;;;;;1.75;100.00;99993.55;1729625;81;21146;-70
2022/02/24 06:32:37;;;;;;;107.00;35.13;;;;;;;1.81;100.00;99999.41;1728937;82;20952;-69
2022/02/24 06:35:09;;;;;;;453.48;144.43;;;;;;;1.86;100.00;100001.50;1725547;82;21548;-69
2022/02/24 06:37:40;;;;;;;242.10;73.42;;;;;;;1.92;100.00;100009.53;1701166;82;21107;-68
2022/02/24 06:40:10;;;;;;;126.33;40.20;;;;;;;1.96;100.00;100007.34;1654498;84;21063;-70
2022/02/24 06:42:38;;;;;;;123.02;42.55;;;;;;;2.04;100.00;100014.35;1728631;81;21158;-71
2022/02/24 06:45:07;;;;;;;109.20;43.23;;;;;;;2.10;100.00;100018.89;1731117;81;21602;-68
2022/02/24 06:47:57;;;;;;;93.82;40.38;;;;;;;2.17;100.00;100016.32;1726032;82;21122;-70
2022/02/24 06:50:24;;;;;;;24.52;14.15;;;;;;;2.25;100.00;100018.33;1691847;83;21134;-70
2022/02/24 06:52:51;;;;;;;47.78;21.87;;;;;;;2.32;100.00;100022.38;1727808;82;21103;-69
2022/02/24 06:55:21;;;;;;;21.25;12.78;;;;;;;2.35;100.00;100023.31;1699555;82;21162;-72
2022/02/24 06:57:51;;;;;;;50.48;26.90;;;;;;;2.38;100.00;100024.77;1687790;85;21015;-68
2022/02/24 07:00:19;;;;;;;45.17;24.18;;;;;;;2.43;100.00;100026.38;1717057;80;20971;-69
2022/02/24 07:02:45;;;;;;;18.65;10.08;;;;;;;2.49;100.00;100031.72;1740515;80;21114;-69
2022/02/24 07:05:14;;;;;;;15.35;10.78;;;;;;;2.51;100.00;100031.54;1741591;80;21063;-71
2022/02/24 07:07:41;;;;;;;15.85;9.68;;;;;;;2.60;100.00;100032.22;1731666;82;21185;-74
2022/02/24 07:10:11;;;;;;;12.63;10.85;;;;;;;2.67;100.00;100039.24;1717762;81;20992;-72
2022/02/24 07:12:44;;;;;;;19.15;10.78;;;;;;;2.74;100.00;100037.95;1743622;81;21006;-73
2022/02/24 07:15:13;;;;;;;15.70;10.32;;;;;;;2.83;100.00;100035.49;1709230;83;21707;-70
2022/02/24 07:17:45;;;;;;;;;;;;;;;2.89;100.00;100044.50;1699452;83;21274;-69
2022/02/24 07:20:17;;;;;;;10.05;8.65;;;;;;;2.97;100.00;100042.55;1720085;81;20095;-69
2022/02/24 07:22:44;;;;;;;14.45;9.78;;;;;;;3.07;100.00;100042.73;1720633;82;21571;-68
2022/02/24 07:25:14;;;;;;;12.80;8.20;;;;;;;3.11;100.00;100056.73;1735602;82;21047;-70
2022/02/24 07:27:42;;;;;;;13.50;9.20;;;;;;;3.07;100.00;100062.11;1698062;83;21014;-72
2022/02/24 07:30:12;;;;;;;17.70;10.95;;;;;;;3.12;100.00;100062.34;1733347;82;21056;-70
2022/02/24 07:32:40;;;;;;;17.32;8.70;;;;;;;3.08;100.00;100070.87;1729364;81;21129;-72
2022/02/24 07:35:08;;;;;;;15.70;9.00;;;;;;;3.06;100.00;100072.38;1699177;83;20894;-71
2022/02/24 07:37:37;;;;;;;15.60;9.03;;;;;;;3.10;100.00;100078.14;1739551;81;21050;-70
2022/02/24 07:40:04;;;;;;;12.63;8.45;;;;;;;3.14;100.00;100080.22;1732990;81;21020;-73
2022/02/24 07:42:34;;;;;;;11.57;7.78;;;;;;;3.27;100.00;100083.98;1759943;80;21058;-72
2022/02/24 07:45:01;;;;;;;;;;;;;;;3.32;100.00;100078.92;1741610;80;21041;-70
2022/02/24 07:47:28;;;;;;;15.10;9.23;;;;;;;3.35;100.00;100081.18;1733233;82;20173;-71
2022/02/24 07:49:55;;;;;;;19.12;8.90;;;;;;;3.44;100.00;100082.67;1731693;82;21734;-70
2022/02/24 07:52:27;;;;;;;10.75;6.75;;;;;;;3.54;100.00;100088.45;1746616;81;21061;-73
2022/02/24 07:54:50;;;;;;;8.93;6.80;;;;;;;3.64;100.00;100091.57;1749230;80;21124;-70
2022/02/24 07:57:17;;;;;;;13.13;9.10;;;;;;;3.53;100.00;100092.62;1753701;81;20982;-69
2022/02/24 07:59:45;;;;;;;8.45;7.22;;;;;;;3.58;100.00;100092.88;1720537;81;21533;-73
2022/02/24 08:02:12;;;;;;;10.40;8.35;;;;;;;3.60;100.00;100094.81;1722320;82;20968;-69
2022/02/24 08:04:39;;;;;;;9.73;6.55;;;;;;;3.57;100.00;100093.37;1726093;81;21414;-70
2022/02/24 08:07:05;;;;;;;7.97;5.97;;;;;;;3.48;100.00;100094.55;1717262;82;20982;-72
2022/02/24 08:09:32;;;;;;;13.25;7.50;;;;;;;3.56;100.00;100101.55;1719034;83;21122;-68
2022/02/24 08:14:46;;;;;;;11.05;7.37;;;;;;;4.23;100.00;100101.36;1693397;84;21065;-72
2022/02/24 08:17:14;;;;;;;13.18;7.25;;;;;;;4.46;100.00;100105.84;1721874;81;21059;-69
2022/02/24 08:19:42;;;;;;;19.15;11.85;;;;;;;4.68;100.00;100108.36;1725377;81;21073;-71
2022/02/24 08:22:11;;;;;;;14.83;9.38;;;;;;;4.98;100.00;100110.66;1747192;82;21176;-68
2022/02/24 08:24:38;;;;;;;17.05;5.87;;;;;;;5.49;100.00;100104.20;1742693;80;21125;-68
2022/02/24 08:27:06;;;;;;;13.50;8.78;;;;;;;5.62;100.00;100112.67;1751031;81;21027;-71
2022/02/24 08:29:32;;;;;;;9.93;6.55;;;;;;;5.61;100.00;100119.03;1773228;80;21081;-69
2022/02/24 08:32:01;;;;;;;6.50;4.55;;;;;;;5.66;100.00;100120.56;1757091;81;25293;-71
2022/02/24 08:34:28;;;;;;;7.78;5.47;;;;;;;5.41;100.00;100117.70;1764854;80;21107;-70
2022/02/24 08:36:55;;;;;;;7.67;5.95;;;;;;;5.06;100.00;100120.57;1720868;83;21359;-70
2022/02/24 08:39:23;;;;;;;11.68;5.72;;;;;;;4.74;100.00;100114.19;1716542;83;21529;-72
2022/02/24 08:41:56;;;;;;;18.57;12.65;;;;;;;4.60;100.00;100117.83;1727092;81;21106;-73
2022/02/24 08:44:26;;;;;;;13.05;7.22;;;;;;;4.40;100.00;100117.78;1742724;81;21036;-70
2022/02/24 08:46:53;;;;;;;8.55;6.15;;;;;;;4.37;100.00;100120.84;1708681;83;21107;-69
2022/02/24 08:49:19;;;;;;;11.25;6.92;;;;;;;4.26;100.00;100119.56;1733023;81;21097;-67
2022/02/24 08:51:46;;;;;;;7.75;5.28;;;;;;;4.15;100.00;100122.80;1713213;82;21000;-69
2022/02/24 08:54:14;;;;;;;12.88;8.13;;;;;;;4.20;100.00;100119.04;1727904;81;21083;-69
2022/02/24 08:56:42;;;;;;;166.25;127.45;;;;;;;4.19;100.00;100116.90;1697958;82;27039;-71
2022/02/24 08:59:09;;;;;;;162.40;109.20;;;;;;;4.22;100.00;100124.98;1716916;81;21128;-70
2022/02/24 09:01:35;;;;;;;29.55;22.65;;;;;;;4.33;100.00;100123.06;1740661;81;20954;-68
2022/02/24 09:04:02;;;;;;;18.30;12.47;;;;;;;4.33;100.00;100121.73;1701277;82;21049;-71
2022/02/24 09:06:29;;;;;;;11.93;8.40;;;;;;;4.38;100.00;100121.95;1765025;80;21067;-71
2022/02/24 09:08:56;;;;;;;11.63;7.83;;;;;;;4.40;100.00;100122.58;1739983;80;21016;-70
2022/02/24 09:11:24;;;;;;;10.20;7.00;;;;;;;4.41;100.00;100122.06;1713047;83;20905;-69
2022/02/24 09:13:51;;;;;;;12.55;6.65;;;;;;;4.32;100.00;100125.94;1732423;81;21007;-68
2022/02/24 09:16:18;;;;;;;10.00;6.25;;;;;;;4.05;100.00;100117.84;1740312;80;21101;-69
2022/02/24 09:18:46;;;;;;;11.50;6.40;;;;;;;3.97;100.00;100122.83;1746842;80;21026;-69
2022/02/24 09:21:13;;;;;;;9.60;6.55;;;;;;;3.99;100.00;100125.27;1728369;82;21012;-70
2022/02/24 09:23:42;;;;;;;12.13;7.10;;;;;;;4.02;100.00;100126.22;1724657;83;21607;-69
2022/02/24 09:26:10;;;;;;;9.40;6.85;;;;;;;4.06;100.00;100124.28;1724730;82;21075;-71
2022/02/24 09:28:36;;;;;;;13.88;7.37;;;;;;;4.16;100.00;100123.91;1725995;81;21031;-69
2022/02/24 09:31:03;;;;;;;11.57;7.42;;;;;;;4.28;100.00;100128.16;1731185;81;20996;-70
2022/02/24 09:33:30;;;;;;;11.43;6.87;;;;;;;4.32;100.00;100123.28;1739593;81;21604;-68
2022/02/24 09:35:56;;;;;;;7.95;5.00;;;;;;;4.40;100.00;100121.77;1729157;83;21830;-70
2022/02/24 09:38:24;;;;;;;9.90;7.17;;;;;;;4.38;100.00;100126.45;1743575;82;20939;-70
2022/02/24 09:40:56;;;;;;;12.35;9.90;;;;;;;4.41;100.00;100118.08;1737066;82;21110;-69
2022/02/24 09:43:38;;;;;;;13.00;11.00;;;;;;;4.44;100.00;100118.52;1733364;80;21557;-68
2022/02/24 09:46:10;;;;;;;9.65;6.97;;;;;;;4.64;100.00;100115.91;1699752;81;20931;-69
2022/02/24 09:48:42;;;;;;;15.53;7.35;;;;;;;4.80;100.00;100116.55;1699601;83;21597;-68
2022/02/24 09:51:11;;;;;;;11.28;7.90;;;;;;;4.87;100.00;100118.19;1694451;82;21004;-71
2022/02/24 09:53:38;;;;;;;9.30;6.30;;;;;;;4.89;100.00;100117.48;1704164;82;20969;-70
2022/02/24 09:56:06;;;;;;;11.83;6.95;;;;;;;4.93;100.00;100119.24;1710652;82;21023;-69
2022/02/24 09:58:33;;;;;;;10.03;7.12;;;;;;;4.68;100.00;100117.67;1701091;82;21515;-69
2022/02/24 10:01:02;;;;;;;9.33;6.25;;;;;;;4.41;100.00;100117.59;1696818;82;21600;-73
2022/02/24 10:03:45;;;;;;;7.53;5.47;;;;;;;4.20;100.00;100115.05;1690760;82;21066;-69
2022/02/24 10:06:16;;;;;;;6.90;5.05;;;;;;;3.91;100.00;100118.80;1691962;83;21086;-69
2022/02/24 10:08:47;;;;;;;4.95;4.35;;;;;;;3.70;100.00;100118.35;1716209;83;20911;-65
2022/02/24 10:11:23;;;;;;;8.90;5.42;;;;;;;3.51;100.00;100119.38;1692947;82;20998;-67
2022/02/24 10:14:10;;;;;;;10.00;6.17;;;;;;;3.36;100.00;100116.00;1700692;83;21138;-69
2022/02/24 10:17:01;;;;;;;9.90;5.75;;;;;;;3.26;100.00;100126.95;1712810;82;21050;-69
2022/02/24 10:19:44;;;;;;;7.03;5.53;;;;;;;3.26;100.00;100123.45;1697943;84;20927;-69
2022/02/24 10:22:19;;;;;;;8.08;6.80;;;;;;;3.36;100.00;100132.73;1697759;83;21073;-67
2022/02/24 10:25:11;;;;;;;8.88;6.45;;;;;;;3.52;100.00;100125.49;1710709;83;20957;-67
2022/02/24 10:27:40;;;;;;;4.95;4.45;;;;;;;3.54;100.00;100124.80;1707001;82;22016;-69
2022/02/24 10:30:19;;;;;;;7.10;6.40;;;;;;;3.46;100.00;100123.12;1725798;83;21074;-67
2022/02/24 10:32:49;;;;;;;9.28;7.40;;;;;;;3.48;100.00;100122.42;1726363;83;21597;-69
2022/02/24 10:35:41;;;;;;;8.48;6.92;;;;;;;3.48;100.00;100121.09;1725934;83;20988;-70
2022/02/24 10:38:12;;;;;;;7.60;4.72;;;;;;;3.54;100.00;100113.67;1726062;83;20884;-69
2022/02/24 10:40:52;;;;;;;6.37;5.70;;;;;;;3.77;100.00;100110.77;1726491;83;21129;-69
2022/02/24 10:43:31;;;;;;;6.62;5.78;;;;;;;3.87;100.00;100109.05;1726109;83;22844;-69
2022/02/24 10:46:09;;;;;;;5.37;4.42;;;;;;;4.04;100.00;100105.56;1706056;82;21567;-68
2022/02/24 10:48:57;;;;;;;4.85;4.35;;;;;;;4.25;100.00;100106.78;1753701;81;21014;-69
2022/02/24 10:51:31;;;;;;;5.12;3.80;;;;;;;4.85;100.00;100105.63;1754469;81;21065;-69
2022/02/24 10:54:08;;;;;;;10.10;7.53;;;;;;;5.51;100.00;100106.62;1768772;79;22550;-68
2022/02/24 10:56:40;;;;;;;8.00;4.03;;;;;;;5.82;100.00;100109.96;1810491;78;21233;-70
2022/02/24 10:59:08;;;;;;;6.03;4.28;;;;;;;6.01;100.00;100114.45;1812885;79;20833;-69
2022/02/24 11:01:36;;;;;;;10.08;6.65;;;;;;;6.11;100.00;100115.34;1811940;79;20944;-69
2022/02/24 11:04:05;;;;;;;8.23;6.37;;;;;;;6.15;100.00;100109.90;1812823;78;20967;-71
2022/02/24 11:06:37;;;;;;;10.18;6.70;;;;;;;6.12;100.00;100104.16;1793545;79;21127;-70
2022/02/24 11:09:07;;;;;;;9.40;6.80;;;;;;;5.86;100.00;100104.53;1778989;80;20888;-70
2022/02/24 11:11:37;;;;;;;10.08;6.92;;;;;;;5.88;100.00;100101.15;1766895;78;21466;-71
2022/02/24 11:14:10;;;;;;;15.93;9.60;;;;;;;5.90;100.00;100100.40;1758617;81;21509;-70
2022/02/24 11:16:38;;;;;;;18.60;12.23;;;;;;;5.82;100.00;100094.50;1758498;81;21000;-69
2022/02/24 11:19:06;;;;;;;8.85;7.40;;;;;;;5.76;100.00;100094.83;1742364;79;21152;-69
2022/02/24 11:21:35;;;;;;;8.53;6.03;;;;;;;5.64;100.00;100096.50;1781226;80;25129;-69
2022/02/24 11:24:06;;;;;;;9.70;7.03;;;;;;;5.35;100.00;100093.25;1785464;80;20978;-68
2022/02/24 11:26:49;;;;;;;11.15;6.78;;;;;;;5.09;100.00;100093.55;1785463;80;20985;-70